sensor_id;sensor_type;location;lat;lon;timestamp;P1;durP1;ratioP1;P2;durP2;ratioP2
23565;SDS011;22140;48.988;8.544;2023-04-24T00:02:37;5.17;;;1.07;;
23565;SDS011;22140;48.988;8.544;2023-04-24T00:07:43;3.30;;;0.70;;
23565;SDS011;22140;48.988;8.544;2023-04-24T00:12:45;4.50;;;0.80;;
23565;SDS011;22140;48.988;8.544;2023-04-24T00:17:46;4.35;;;1.00;;
23565;SDS011;22140;48.988;8.544;2023-04-24T00:22:48;5.85;;;1.40;;
23565;SDS011;22140;48.988;8.544;2023-04-24T00:27:49;6.70;;;1.40;;
23565;SDS011;22140;48.988;8.544;2023-04-24T00:32:51;4.13;;;0.82;;
23565;SDS011;22140;48.988;8.544;2023-04-24T00:37:52;4.87;;;0.70;;
23565;SDS011;22140;48.988;8.544;2023-04-24T00:42:54;5.80;;;1.10;;
23565;SDS011;22140;48.988;8.544;2023-04-24T00:47:55;6.88;;;0.95;;
23565;SDS011;22140;48.988;8.544;2023-04-24T00:52:57;5.33;;;0.90;;
23565;SDS011;22140;48.988;8.544;2023-04-24T00:57:58;3.95;;;0.70;;
23565;SDS011;22140;48.988;8.544;2023-04-24T01:02:59;5.07;;;0.83;;
23565;SDS011;22140;48.988;8.544;2023-04-24T01:08:03;3.25;;;0.70;;
23565;SDS011;22140;48.988;8.544;2023-04-24T01:13:04;3.70;;;0.80;;
23565;SDS011;22140;48.988;8.544;2023-04-24T01:18:05;4.33;;;0.83;;
23565;SDS011;22140;48.988;8.544;2023-04-24T01:23:07;2.83;;;0.70;;
23565;SDS011;22140;48.988;8.544;2023-04-24T01:28:09;4.57;;;0.70;;
23565;SDS011;22140;48.988;8.544;2023-04-24T01:33:10;4.55;;;0.90;;
23565;SDS011;22140;48.988;8.544;2023-04-24T01:38:12;5.68;;;0.98;;
23565;SDS011;22140;48.988;8.544;2023-04-24T01:43:13;4.57;;;0.70;;
23565;SDS011;22140;48.988;8.544;2023-04-24T01:48:15;4.00;;;0.70;;
23565;SDS011;22140;48.988;8.544;2023-04-24T01:53:16;3.77;;;0.73;;
23565;SDS011;22140;48.988;8.544;2023-04-24T01:58:18;3.63;;;0.95;;
23565;SDS011;22140;48.988;8.544;2023-04-24T02:03:19;3.42;;;0.63;;
23565;SDS011;22140;48.988;8.544;2023-04-24T02:08:21;3.80;;;0.80;;
23565;SDS011;22140;48.988;8.544;2023-04-24T02:13:22;4.80;;;0.98;;
23565;SDS011;22140;48.988;8.544;2023-04-24T02:18:23;3.53;;;0.80;;
23565;SDS011;22140;48.988;8.544;2023-04-24T02:23:25;4.45;;;0.80;;
23565;SDS011;22140;48.988;8.544;2023-04-24T02:28:28;3.97;;;1.00;;
23565;SDS011;22140;48.988;8.544;2023-04-24T02:33:29;4.47;;;1.00;;
23565;SDS011;22140;48.988;8.544;2023-04-24T02:38:30;4.40;;;0.65;;
23565;SDS011;22140;48.988;8.544;2023-04-24T02:43:32;4.90;;;1.00;;
23565;SDS011;22140;48.988;8.544;2023-04-24T02:48:34;6.30;;;0.80;;
23565;SDS011;22140;48.988;8.544;2023-04-24T02:53:35;4.30;;;0.90;;
23565;SDS011;22140;48.988;8.544;2023-04-24T02:58:36;6.07;;;1.50;;
23565;SDS011;22140;48.988;8.544;2023-04-24T03:03:38;6.65;;;1.13;;
23565;SDS011;22140;48.988;8.544;2023-04-24T03:08:40;5.30;;;1.00;;
23565;SDS011;22140;48.988;8.544;2023-04-24T03:13:42;3.72;;;0.73;;
23565;SDS011;22140;48.988;8.544;2023-04-24T03:18:43;3.85;;;0.93;;
23565;SDS011;22140;48.988;8.544;2023-04-24T03:23:44;2.67;;;0.60;;
23565;SDS011;22140;48.988;8.544;2023-04-24T03:28:45;4.68;;;0.60;;
23565;SDS011;22140;48.988;8.544;2023-04-24T03:33:47;4.70;;;0.77;;
23565;SDS011;22140;48.988;8.544;2023-04-24T03:38:48;3.80;;;1.10;;
23565;SDS011;22140;48.988;8.544;2023-04-24T03:43:49;4.60;;;0.70;;
23565;SDS011;22140;48.988;8.544;2023-04-24T03:48:51;3.50;;;1.00;;
23565;SDS011;22140;48.988;8.544;2023-04-24T03:53:52;4.40;;;1.10;;
23565;SDS011;22140;48.988;8.544;2023-04-24T03:58:53;4.97;;;1.00;;
23565;SDS011;22140;48.988;8.544;2023-04-24T04:03:54;6.70;;;1.02;;
23565;SDS011;22140;48.988;8.544;2023-04-24T04:08:56;3.45;;;0.95;;
23565;SDS011;22140;48.988;8.544;2023-04-24T04:13:58;5.27;;;1.10;;
23565;SDS011;22140;48.988;8.544;2023-04-24T04:18:59;4.75;;;1.00;;
23565;SDS011;22140;48.988;8.544;2023-04-24T04:24:01;4.83;;;1.20;;
23565;SDS011;22140;48.988;8.544;2023-04-24T04:29:02;7.85;;;1.20;;
23565;SDS011;22140;48.988;8.544;2023-04-24T04:34:04;5.97;;;1.30;;
23565;SDS011;22140;48.988;8.544;2023-04-24T04:39:06;4.00;;;1.00;;
23565;SDS011;22140;48.988;8.544;2023-04-24T04:44:07;4.55;;;1.00;;
23565;SDS011;22140;48.988;8.544;2023-04-24T04:49:10;6.93;;;1.63;;
23565;SDS011;22140;48.988;8.544;2023-04-24T04:54:11;5.03;;;1.40;;
23565;SDS011;22140;48.988;8.544;2023-04-24T04:59:13;13.98;;;2.70;;
23565;SDS011;22140;48.988;8.544;2023-04-24T05:04:14;6.07;;;1.40;;
23565;SDS011;22140;48.988;8.544;2023-04-24T05:09:16;6.50;;;1.40;;
23565;SDS011;22140;48.988;8.544;2023-04-24T05:14:17;5.60;;;1.63;;
23565;SDS011;22140;48.988;8.544;2023-04-24T05:19:20;5.45;;;1.30;;
23565;SDS011;22140;48.988;8.544;2023-04-24T05:24:21;7.30;;;1.83;;
23565;SDS011;22140;48.988;8.544;2023-04-24T05:29:22;6.60;;;2.27;;
23565;SDS011;22140;48.988;8.544;2023-04-24T05:34:23;4.95;;;1.60;;
23565;SDS011;22140;48.988;8.544;2023-04-24T05:39:25;5.63;;;1.60;;
23565;SDS011;22140;48.988;8.544;2023-04-24T05:44:26;5.30;;;1.55;;
23565;SDS011;22140;48.988;8.544;2023-04-24T05:49:28;9.02;;;1.63;;
23565;SDS011;22140;48.988;8.544;2023-04-24T05:54:29;6.27;;;1.57;;
23565;SDS011;22140;48.988;8.544;2023-04-24T05:59:30;6.10;;;2.20;;
23565;SDS011;22140;48.988;8.544;2023-04-24T06:04:32;5.23;;;1.60;;
23565;SDS011;22140;48.988;8.544;2023-04-24T06:09:34;5.30;;;1.75;;
23565;SDS011;22140;48.988;8.544;2023-04-24T06:14:41;7.55;;;1.60;;
23565;SDS011;22140;48.988;8.544;2023-04-24T06:19:42;4.47;;;1.50;;
23565;SDS011;22140;48.988;8.544;2023-04-24T06:24:44;5.93;;;1.92;;
23565;SDS011;22140;48.988;8.544;2023-04-24T06:29:46;5.07;;;1.63;;
23565;SDS011;22140;48.988;8.544;2023-04-24T06:34:48;8.02;;;1.60;;
23565;SDS011;22140;48.988;8.544;2023-04-24T06:39:50;5.00;;;1.90;;
23565;SDS011;22140;48.988;8.544;2023-04-24T06:44:51;4.77;;;1.50;;
23565;SDS011;22140;48.988;8.544;2023-04-24T06:49:53;6.13;;;1.80;;
23565;SDS011;22140;48.988;8.544;2023-04-24T06:54:59;8.17;;;1.63;;
23565;SDS011;22140;48.988;8.544;2023-04-24T07:00:01;5.57;;;1.30;;
23565;SDS011;22140;48.988;8.544;2023-04-24T07:05:02;6.93;;;1.60;;
23565;SDS011;22140;48.988;8.544;2023-04-24T07:10:04;9.90;;;1.50;;
23565;SDS011;22140;48.988;8.544;2023-04-24T07:15:06;6.20;;;1.57;;
23565;SDS011;22140;48.988;8.544;2023-04-24T07:20:09;4.65;;;1.40;;
23565;SDS011;22140;48.988;8.544;2023-04-24T07:25:11;8.83;;;1.77;;
23565;SDS011;22140;48.988;8.544;2023-04-24T07:30:13;5.00;;;1.60;;
23565;SDS011;22140;48.988;8.544;2023-04-24T07:35:14;8.05;;;1.85;;
23565;SDS011;22140;48.988;8.544;2023-04-24T07:40:15;11.73;;;1.77;;
23565;SDS011;22140;48.988;8.544;2023-04-24T07:45:17;8.23;;;1.50;;
23565;SDS011;22140;48.988;8.544;2023-04-24T07:50:18;19.83;;;2.47;;
23565;SDS011;22140;48.988;8.544;2023-04-24T07:55:19;14.80;;;2.07;;
23565;SDS011;22140;48.988;8.544;2023-04-24T08:00:25;6.73;;;1.33;;
23565;SDS011;22140;48.988;8.544;2023-04-24T08:05:27;7.82;;;1.50;;
23565;SDS011;22140;48.988;8.544;2023-04-24T08:10:29;14.67;;;1.83;;
23565;SDS011;22140;48.988;8.544;2023-04-24T08:15:31;5.40;;;1.30;;
23565;SDS011;22140;48.988;8.544;2023-04-24T08:20:32;6.53;;;1.50;;
23565;SDS011;22140;48.988;8.544;2023-04-24T08:25:33;11.60;;;1.67;;
23565;SDS011;22140;48.988;8.544;2023-04-24T08:30:36;10.15;;;1.23;;
23565;SDS011;22140;48.988;8.544;2023-04-24T08:35:37;5.35;;;1.20;;
23565;SDS011;22140;48.988;8.544;2023-04-24T08:40:39;5.07;;;1.20;;
23565;SDS011;22140;48.988;8.544;2023-04-24T08:45:41;6.15;;;1.30;;
23565;SDS011;22140;48.988;8.544;2023-04-24T08:50:42;7.60;;;1.67;;
23565;SDS011;22140;48.988;8.544;2023-04-24T08:55:46;6.43;;;1.50;;
23565;SDS011;22140;48.988;8.544;2023-04-24T09:00:48;6.13;;;1.50;;
23565;SDS011;22140;48.988;8.544;2023-04-24T09:05:51;42.03;;;3.10;;
23565;SDS011;22140;48.988;8.544;2023-04-24T09:10:53;9.38;;;1.63;;
23565;SDS011;22140;48.988;8.544;2023-04-24T09:15:55;4.70;;;1.20;;
23565;SDS011;22140;48.988;8.544;2023-04-24T09:26:01;11.57;;;1.35;;
23565;SDS011;22140;48.988;8.544;2023-04-24T09:36:06;5.32;;;1.40;;
23565;SDS011;22140;48.988;8.544;2023-04-24T09:41:08;5.38;;;1.40;;
23565;SDS011;22140;48.988;8.544;2023-04-24T09:46:14;22.13;;;2.77;;
23565;SDS011;22140;48.988;8.544;2023-04-24T09:51:16;17.13;;;2.53;;
23565;SDS011;22140;48.988;8.544;2023-04-24T09:56:17;10.87;;;2.20;;
23565;SDS011;22140;48.988;8.544;2023-04-24T10:01:39;8.60;;;1.90;;
23565;SDS011;22140;48.988;8.544;2023-04-24T10:06:43;13.63;;;4.18;;
23565;SDS011;22140;48.988;8.544;2023-04-24T10:11:46;18.27;;;3.60;;
23565;SDS011;22140;48.988;8.544;2023-04-24T10:16:48;8.02;;;1.70;;
23565;SDS011;22140;48.988;8.544;2023-04-24T10:21:50;6.15;;;1.60;;
23565;SDS011;22140;48.988;8.544;2023-04-24T10:26:51;6.73;;;1.47;;
23565;SDS011;22140;48.988;8.544;2023-04-24T10:31:53;6.72;;;1.85;;
23565;SDS011;22140;48.988;8.544;2023-04-24T10:36:54;8.83;;;1.77;;
23565;SDS011;22140;48.988;8.544;2023-04-24T10:41:58;8.05;;;1.80;;
23565;SDS011;22140;48.988;8.544;2023-04-24T10:46:59;23.27;;;2.83;;
23565;SDS011;22140;48.988;8.544;2023-04-24T10:52:02;39.87;;;3.97;;
23565;SDS011;22140;48.988;8.544;2023-04-24T11:02:35;6.60;;;1.90;;
23565;SDS011;22140;48.988;8.544;2023-04-24T11:13:02;5.05;;;1.45;;
23565;SDS011;22140;48.988;8.544;2023-04-24T11:18:03;6.43;;;1.80;;
23565;SDS011;22140;48.988;8.544;2023-04-24T11:23:04;5.63;;;1.80;;
23565;SDS011;22140;48.988;8.544;2023-04-24T11:28:07;6.20;;;1.90;;
23565;SDS011;22140;48.988;8.544;2023-04-24T11:33:15;6.22;;;2.20;;
23565;SDS011;22140;48.988;8.544;2023-04-24T11:38:20;6.10;;;2.20;;
23565;SDS011;22140;48.988;8.544;2023-04-24T11:43:25;6.33;;;2.30;;
23565;SDS011;22140;48.988;8.544;2023-04-24T11:48:26;8.18;;;2.80;;
23565;SDS011;22140;48.988;8.544;2023-04-24T11:53:29;6.53;;;2.93;;
23565;SDS011;22140;48.988;8.544;2023-04-24T11:58:34;9.63;;;3.83;;
23565;SDS011;22140;48.988;8.544;2023-04-24T12:03:36;7.50;;;3.00;;
23565;SDS011;22140;48.988;8.544;2023-04-24T12:08:38;9.07;;;2.97;;
23565;SDS011;22140;48.988;8.544;2023-04-24T12:13:39;7.32;;;2.95;;
23565;SDS011;22140;48.988;8.544;2023-04-24T12:18:41;5.73;;;2.40;;
23565;SDS011;22140;48.988;8.544;2023-04-24T12:23:43;6.40;;;2.40;;
23565;SDS011;22140;48.988;8.544;2023-04-24T12:28:47;7.07;;;2.67;;
23565;SDS011;22140;48.988;8.544;2023-04-24T12:33:49;6.40;;;2.60;;
23565;SDS011;22140;48.988;8.544;2023-04-24T12:38:52;8.83;;;2.50;;
23565;SDS011;22140;48.988;8.544;2023-04-24T12:43:54;7.30;;;2.63;;
23565;SDS011;22140;48.988;8.544;2023-04-24T12:48:56;7.50;;;2.67;;
23565;SDS011;22140;48.988;8.544;2023-04-24T12:53:59;10.88;;;2.80;;
23565;SDS011;22140;48.988;8.544;2023-04-24T12:59:00;6.05;;;2.30;;
23565;SDS011;22140;48.988;8.544;2023-04-24T13:04:02;7.67;;;2.30;;
23565;SDS011;22140;48.988;8.544;2023-04-24T13:09:03;7.03;;;2.25;;
23565;SDS011;22140;48.988;8.544;2023-04-24T13:14:04;36.85;;;3.78;;
23565;SDS011;22140;48.988;8.544;2023-04-24T13:19:06;6.23;;;2.10;;
23565;SDS011;22140;48.988;8.544;2023-04-24T13:24:07;6.00;;;2.10;;
23565;SDS011;22140;48.988;8.544;2023-04-24T13:29:09;13.93;;;3.07;;
23565;SDS011;22140;48.988;8.544;2023-04-24T13:34:11;9.43;;;3.28;;
23565;SDS011;22140;48.988;8.544;2023-04-24T13:39:12;9.15;;;2.55;;
23565;SDS011;22140;48.988;8.544;2023-04-24T13:44:14;8.00;;;3.00;;
23565;SDS011;22140;48.988;8.544;2023-04-24T13:49:16;6.55;;;2.70;;
23565;SDS011;22140;48.988;8.544;2023-04-24T13:54:17;9.83;;;3.20;;
23565;SDS011;22140;48.988;8.544;2023-04-24T13:59:19;9.03;;;3.10;;
23565;SDS011;22140;48.988;8.544;2023-04-24T14:04:22;8.40;;;2.95;;
23565;SDS011;22140;48.988;8.544;2023-04-24T14:09:24;7.83;;;2.90;;
23565;SDS011;22140;48.988;8.544;2023-04-24T14:14:25;8.00;;;2.77;;
23565;SDS011;22140;48.988;8.544;2023-04-24T14:19:27;13.50;;;2.97;;
23565;SDS011;22140;48.988;8.544;2023-04-24T14:24:28;5.80;;;1.80;;
23565;SDS011;22140;48.988;8.544;2023-04-24T14:29:29;5.63;;;1.90;;
23565;SDS011;22140;48.988;8.544;2023-04-24T14:34:31;8.15;;;2.08;;
23565;SDS011;22140;48.988;8.544;2023-04-24T14:39:32;7.50;;;2.20;;
23565;SDS011;22140;48.988;8.544;2023-04-24T14:44:33;7.32;;;2.08;;
23565;SDS011;22140;48.988;8.544;2023-04-24T14:49:35;6.18;;;1.80;;
23565;SDS011;22140;48.988;8.544;2023-04-24T14:54:36;5.33;;;1.60;;
23565;SDS011;22140;48.988;8.544;2023-04-24T14:59:37;5.45;;;1.50;;
23565;SDS011;22140;48.988;8.544;2023-04-24T15:04:38;6.57;;;1.50;;
23565;SDS011;22140;48.988;8.544;2023-04-24T15:09:40;7.43;;;1.83;;
23565;SDS011;22140;48.988;8.544;2023-04-24T15:14:41;6.10;;;1.60;;
23565;SDS011;22140;48.988;8.544;2023-04-24T15:19:43;5.47;;;1.60;;
23565;SDS011;22140;48.988;8.544;2023-04-24T15:24:44;9.43;;;1.60;;
23565;SDS011;22140;48.988;8.544;2023-04-24T15:29:45;4.95;;;1.50;;
23565;SDS011;22140;48.988;8.544;2023-04-24T15:34:47;6.10;;;2.00;;
23565;SDS011;22140;48.988;8.544;2023-04-24T15:39:57;6.03;;;1.67;;
23565;SDS011;22140;48.988;8.544;2023-04-24T15:44:58;5.70;;;2.00;;
23565;SDS011;22140;48.988;8.544;2023-04-24T15:49:59;12.03;;;4.77;;
23565;SDS011;22140;48.988;8.544;2023-04-24T15:55:02;5.43;;;2.03;;
23565;SDS011;22140;48.988;8.544;2023-04-24T16:00:04;5.87;;;1.83;;
23565;SDS011;22140;48.988;8.544;2023-04-24T16:05:09;5.60;;;1.80;;
23565;SDS011;22140;48.988;8.544;2023-04-24T16:10:11;6.15;;;1.73;;
23565;SDS011;22140;48.988;8.544;2023-04-24T16:15:13;4.97;;;1.40;;
23565;SDS011;22140;48.988;8.544;2023-04-24T16:20:14;5.07;;;1.50;;
23565;SDS011;22140;48.988;8.544;2023-04-24T16:25:16;5.10;;;1.50;;
23565;SDS011;22140;48.988;8.544;2023-04-24T16:30:17;6.03;;;2.20;;
23565;SDS011;22140;48.988;8.544;2023-04-24T16:35:19;6.87;;;2.37;;
23565;SDS011;22140;48.988;8.544;2023-04-24T16:40:20;5.63;;;1.70;;
23565;SDS011;22140;48.988;8.544;2023-04-24T16:45:22;5.83;;;1.50;;
23565;SDS011;22140;48.988;8.544;2023-04-24T16:50:23;4.85;;;1.50;;
23565;SDS011;22140;48.988;8.544;2023-04-24T16:55:24;6.82;;;2.08;;
23565;SDS011;22140;48.988;8.544;2023-04-24T17:00:26;6.93;;;2.30;;
23565;SDS011;22140;48.988;8.544;2023-04-24T17:05:27;14.60;;;3.67;;
23565;SDS011;22140;48.988;8.544;2023-04-24T17:10:28;5.13;;;1.80;;
23565;SDS011;22140;48.988;8.544;2023-04-24T17:15:30;6.77;;;1.60;;
23565;SDS011;22140;48.988;8.544;2023-04-24T17:20:31;6.53;;;1.90;;
23565;SDS011;22140;48.988;8.544;2023-04-24T17:25:32;8.03;;;2.37;;
23565;SDS011;22140;48.988;8.544;2023-04-24T17:30:34;9.20;;;3.37;;
23565;SDS011;22140;48.988;8.544;2023-04-24T17:35:35;7.10;;;2.33;;
23565;SDS011;22140;48.988;8.544;2023-04-24T17:40:37;7.93;;;2.93;;
23565;SDS011;22140;48.988;8.544;2023-04-24T17:45:39;7.88;;;3.05;;
23565;SDS011;22140;48.988;8.544;2023-04-24T17:50:41;8.23;;;3.00;;
23565;SDS011;22140;48.988;8.544;2023-04-24T17:55:42;6.93;;;2.20;;
23565;SDS011;22140;48.988;8.544;2023-04-24T18:00:44;6.50;;;2.33;;
23565;SDS011;22140;48.988;8.544;2023-04-24T18:05:45;9.68;;;2.30;;
23565;SDS011;22140;48.988;8.544;2023-04-24T18:10:47;5.40;;;1.90;;
23565;SDS011;22140;48.988;8.544;2023-04-24T18:15:49;6.43;;;2.55;;
23565;SDS011;22140;48.988;8.544;2023-04-24T18:20:50;10.40;;;3.00;;
23565;SDS011;22140;48.988;8.544;2023-04-24T18:25:51;8.73;;;2.60;;
23565;SDS011;22140;48.988;8.544;2023-04-24T18:30:53;7.85;;;2.58;;
23565;SDS011;22140;48.988;8.544;2023-04-24T18:35:56;7.80;;;2.20;;
23565;SDS011;22140;48.988;8.544;2023-04-24T18:40:58;5.78;;;2.42;;
23565;SDS011;22140;48.988;8.544;2023-04-24T18:45:59;6.03;;;2.30;;
23565;SDS011;22140;48.988;8.544;2023-04-24T18:51:01;7.63;;;2.43;;
23565;SDS011;22140;48.988;8.544;2023-04-24T18:56:02;13.10;;;4.07;;
23565;SDS011;22140;48.988;8.544;2023-04-24T19:01:03;23.93;;;8.60;;
23565;SDS011;22140;48.988;8.544;2023-04-24T19:06:08;16.60;;;5.28;;
23565;SDS011;22140;48.988;8.544;2023-04-24T19:11:10;425.67;;;129.77;;
23565;SDS011;22140;48.988;8.544;2023-04-24T19:16:11;605.83;;;207.07;;
23565;SDS011;22140;48.988;8.544;2023-04-24T19:21:13;428.77;;;125.00;;
23565;SDS011;22140;48.988;8.544;2023-04-24T19:26:14;411.30;;;125.50;;
23565;SDS011;22140;48.988;8.544;2023-04-24T19:31:16;74.07;;;22.50;;
23565;SDS011;22140;48.988;8.544;2023-04-24T19:36:17;15.38;;;5.70;;
23565;SDS011;22140;48.988;8.544;2023-04-24T19:41:18;12.63;;;4.87;;
23565;SDS011;22140;48.988;8.544;2023-04-24T19:46:20;16.40;;;5.03;;
23565;SDS011;22140;48.988;8.544;2023-04-24T19:51:21;10.97;;;3.53;;
23565;SDS011;22140;48.988;8.544;2023-04-24T19:56:23;10.20;;;4.20;;
23565;SDS011;22140;48.988;8.544;2023-04-24T20:01:25;8.77;;;3.10;;
23565;SDS011;22140;48.988;8.544;2023-04-24T20:06:26;11.37;;;3.53;;
23565;SDS011;22140;48.988;8.544;2023-04-24T20:11:27;7.78;;;2.92;;
23565;SDS011;22140;48.988;8.544;2023-04-24T20:16:29;8.33;;;3.07;;
23565;SDS011;22140;48.988;8.544;2023-04-24T20:21:31;11.93;;;5.60;;
23565;SDS011;22140;48.988;8.544;2023-04-24T20:26:33;10.27;;;4.50;;
23565;SDS011;22140;48.988;8.544;2023-04-24T20:31:36;10.33;;;4.00;;
23565;SDS011;22140;48.988;8.544;2023-04-24T20:36:37;11.27;;;3.60;;
23565;SDS011;22140;48.988;8.544;2023-04-24T20:41:39;6.80;;;3.00;;
23565;SDS011;22140;48.988;8.544;2023-04-24T20:46:40;7.80;;;2.83;;
23565;SDS011;22140;48.988;8.544;2023-04-24T20:51:42;7.57;;;3.10;;
23565;SDS011;22140;48.988;8.544;2023-04-24T20:56:43;10.33;;;4.90;;
23565;SDS011;22140;48.988;8.544;2023-04-24T21:01:45;15.90;;;6.03;;
23565;SDS011;22140;48.988;8.544;2023-04-24T21:06:48;16.00;;;5.90;;
23565;SDS011;22140;48.988;8.544;2023-04-24T21:11:50;13.52;;;4.72;;
23565;SDS011;22140;48.988;8.544;2023-04-24T21:16:51;12.88;;;5.68;;
23565;SDS011;22140;48.988;8.544;2023-04-24T21:21:53;11.80;;;4.87;;
23565;SDS011;22140;48.988;8.544;2023-04-24T21:26:54;10.40;;;4.72;;
23565;SDS011;22140;48.988;8.544;2023-04-24T21:31:55;14.30;;;5.83;;
23565;SDS011;22140;48.988;8.544;2023-04-24T21:36:57;8.93;;;3.90;;
23565;SDS011;22140;48.988;8.544;2023-04-24T21:41:58;8.68;;;4.38;;
23565;SDS011;22140;48.988;8.544;2023-04-24T21:47:00;8.63;;;3.50;;
23565;SDS011;22140;48.988;8.544;2023-04-24T21:52:01;9.95;;;3.17;;
23565;SDS011;22140;48.988;8.544;2023-04-24T21:57:02;6.80;;;2.60;;
23565;SDS011;22140;48.988;8.544;2023-04-24T22:02:04;9.50;;;2.75;;
23565;SDS011;22140;48.988;8.544;2023-04-24T22:07:05;6.47;;;2.20;;
23565;SDS011;22140;48.988;8.544;2023-04-24T22:12:07;7.37;;;2.30;;
23565;SDS011;22140;48.988;8.544;2023-04-24T22:17:08;5.22;;;1.95;;
23565;SDS011;22140;48.988;8.544;2023-04-24T22:22:10;6.60;;;2.10;;
23565;SDS011;22140;48.988;8.544;2023-04-24T22:27:11;8.93;;;2.20;;
23565;SDS011;22140;48.988;8.544;2023-04-24T22:32:12;5.57;;;1.83;;
23565;SDS011;22140;48.988;8.544;2023-04-24T22:37:14;6.07;;;1.90;;
23565;SDS011;22140;48.988;8.544;2023-04-24T22:42:15;6.78;;;2.38;;
23565;SDS011;22140;48.988;8.544;2023-04-24T22:47:17;7.53;;;2.53;;
23565;SDS011;22140;48.988;8.544;2023-04-24T22:52:20;6.13;;;2.33;;
23565;SDS011;22140;48.988;8.544;2023-04-24T22:57:21;9.40;;;2.40;;
23565;SDS011;22140;48.988;8.544;2023-04-24T23:02:23;9.27;;;2.87;;
23565;SDS011;22140;48.988;8.544;2023-04-24T23:07:24;6.13;;;2.42;;
23565;SDS011;22140;48.988;8.544;2023-04-24T23:12:26;7.40;;;2.50;;
23565;SDS011;22140;48.988;8.544;2023-04-24T23:17:27;6.40;;;2.63;;
23565;SDS011;22140;48.988;8.544;2023-04-24T23:22:29;8.00;;;2.60;;
23565;SDS011;22140;48.988;8.544;2023-04-24T23:27:30;7.23;;;2.67;;
23565;SDS011;22140;48.988;8.544;2023-04-24T23:32:32;8.40;;;2.70;;
23565;SDS011;22140;48.988;8.544;2023-04-24T23:37:33;7.43;;;2.67;;
23565;SDS011;22140;48.988;8.544;2023-04-24T23:42:35;6.97;;;2.60;;
23565;SDS011;22140;48.988;8.544;2023-04-24T23:47:37;11.05;;;2.90;;
23565;SDS011;22140;48.988;8.544;2023-04-24T23:52:38;6.73;;;2.40;;
23565;SDS011;22140;48.988;8.544;2023-04-24T23:57:39;6.72;;;2.75;;
